sensor_id;sensor_type;location;lat;lon;timestamp;pressure;altitude;pressure_sealevel;temperature;humidity
73105;BME280;61296;50.526;30.792;2022-10-19T00:12:07;99301.56;;;11.55;48.36
73105;BME280;61296;50.526;30.792;2022-10-19T00:27:27;99333.97;;;11.80;49.34
73105;BME280;61296;50.526;30.792;2022-10-19T00:42:53;99340.69;;;11.97;50.18
73105;BME280;61296;50.526;30.792;2022-10-19T00:58:12;99245.22;;;11.28;51.25
73105;BME280;61296;50.526;30.792;2022-10-19T01:13:53;99305.47;;;11.54;52.07
73105;BME280;61296;50.526;30.792;2022-10-19T02:00:34;99195.88;;;10.84;54.86
73105;BME280;61296;50.526;30.792;2022-10-19T02:15:57;99124.88;;;10.34;55.78
73105;BME280;61296;50.526;30.792;2022-10-19T02:31:17;99161.88;;;10.51;57.13
73105;BME280;61296;50.526;30.792;2022-10-19T02:46:43;99241.13;;;10.97;58.48
73105;BME280;61296;50.526;30.792;2022-10-19T03:02:03;99248.94;;;10.91;60.75
73105;BME280;61296;50.526;30.792;2022-10-19T03:17:22;99185.09;;;10.61;62.40
73105;BME280;61296;50.526;30.792;2022-10-19T03:32:42;99205.72;;;10.92;64.39
73105;BME280;61296;50.526;30.792;2022-10-19T03:48:01;99069.13;;;10.37;66.44
73105;BME280;61296;50.526;30.792;2022-10-19T04:03:21;99185.47;;;11.43;66.56
73105;BME280;61296;50.526;30.792;2022-10-19T04:18:40;99090.53;;;10.87;68.11
73105;BME280;61296;50.526;30.792;2022-10-19T04:34:00;99168.09;;;11.21;68.93
73105;BME280;61296;50.526;30.792;2022-10-19T04:49:19;99121.59;;;10.84;69.96
73105;BME280;61296;50.526;30.792;2022-10-19T05:04:39;99084.53;;;10.53;71.77
73105;BME280;61296;50.526;30.792;2022-10-19T05:19:58;99250.31;;;11.33;74.23
73105;BME280;61296;50.526;30.792;2022-10-19T05:35:18;99193.41;;;10.72;77.36
73105;BME280;61296;50.526;30.792;2022-10-19T05:50:37;99210.31;;;10.70;80.25
73105;BME280;61296;50.526;30.792;2022-10-19T06:05:57;99226.09;;;10.80;80.09
73105;BME280;61296;50.526;30.792;2022-10-19T06:21:18;99183.47;;;10.49;79.87
73105;BME280;61296;50.526;30.792;2022-10-19T06:36:38;99223.25;;;10.66;78.40
73105;BME280;61296;50.526;30.792;2022-10-19T06:51:58;99219.69;;;10.62;78.08
73105;BME280;61296;50.526;30.792;2022-10-19T07:07:17;99251.59;;;10.74;76.34
73105;BME280;61296;50.526;30.792;2022-10-19T07:22:37;99284.81;;;11.13;75.49
73105;BME280;61296;50.526;30.792;2022-10-19T07:37:56;99292.41;;;11.30;74.01
73105;BME280;61296;50.526;30.792;2022-10-19T07:53:16;99232.63;;;11.27;72.21
73105;BME280;61296;50.526;30.792;2022-10-19T08:08:35;99242.53;;;11.49;71.55
73105;BME280;61296;50.526;30.792;2022-10-19T08:23:55;99311.56;;;11.96;71.93
73105;BME280;61296;50.526;30.792;2022-10-19T08:39:15;99277.59;;;11.67;72.81
73105;BME280;61296;50.526;30.792;2022-10-19T08:54:50;99224.38;;;11.27;73.40
73105;BME280;61296;50.526;30.792;2022-10-19T09:25:36;99283.59;;;11.79;71.09
73105;BME280;61296;50.526;30.792;2022-10-19T09:40:57;99229.16;;;11.55;70.08
73105;BME280;61296;50.526;30.792;2022-10-19T09:56:23;99178.50;;;11.81;67.90
73105;BME280;61296;50.526;30.792;2022-10-19T10:11:45;99302.56;;;12.77;67.58
73105;BME280;61296;50.526;30.792;2022-10-19T10:27:05;99235.19;;;12.39;67.41
73105;BME280;61296;50.526;30.792;2022-10-19T10:42:44;99170.63;;;12.26;66.67
73105;BME280;61296;50.526;30.792;2022-10-19T10:58:18;99177.72;;;12.20;66.40
73105;BME280;61296;50.526;30.792;2022-10-19T12:16:34;99069.72;;;13.34;55.60
73105;BME280;61296;50.526;30.792;2022-10-19T12:31:56;99056.72;;;13.34;53.54
73105;BME280;61296;50.526;30.792;2022-10-19T12:47:22;99144.69;;;13.91;54.08
73105;BME280;61296;50.526;30.792;2022-10-19T13:02:42;99112.16;;;13.61;54.53
73105;BME280;61296;50.526;30.792;2022-10-19T13:18:13;99089.47;;;13.28;55.14
73105;BME280;61296;50.526;30.792;2022-10-19T13:33:41;99081.63;;;13.23;55.79
73105;BME280;61296;50.526;30.792;2022-10-19T14:20:33;99086.31;;;13.30;57.21
73105;BME280;61296;50.526;30.792;2022-10-19T14:35:53;99046.94;;;13.12;57.86
73105;BME280;61296;50.526;30.792;2022-10-19T14:51:33;99057.25;;;13.04;57.67
73105;BME280;61296;50.526;30.792;2022-10-19T15:06:55;98997.69;;;12.40;56.89
73105;BME280;61296;50.526;30.792;2022-10-19T15:22:37;99053.13;;;12.64;57.93
73105;BME280;61296;50.526;30.792;2022-10-19T15:38:26;99070.97;;;12.27;57.97
73105;BME280;61296;50.526;30.792;2022-10-19T16:09:23;98998.63;;;11.41;59.14
73105;BME280;61296;50.526;30.792;2022-10-19T16:24:45;99080.84;;;11.64;59.90
73105;BME280;61296;50.526;30.792;2022-10-19T16:40:05;98959.66;;;10.79;60.70
73105;BME280;61296;50.526;30.792;2022-10-19T16:55:27;99072.56;;;11.43;62.24
73105;BME280;61296;50.526;30.792;2022-10-19T17:10:46;98949.72;;;10.28;68.68
73105;BME280;61296;50.526;30.792;2022-10-19T21:54:21;99048.06;;;4.27;95.85
73105;BME280;61296;50.526;30.792;2022-10-19T22:10:24;99166.41;;;4.70;95.55
73105;BME280;61296;50.526;30.792;2022-10-19T22:42:52;99164.47;;;4.18;95.11
73105;BME280;61296;50.526;30.792;2022-10-19T22:58:29;99072.78;;;3.57;94.45
73105;BME280;61296;50.526;30.792;2022-10-19T23:48:44;99125.53;;;2.03;91.07
